createdAt,value
2022-08-26T00:00:25.012Z,83.59
2022-08-26T00:02:53.503Z,83.64
2022-08-26T00:05:22.719Z,83.95
2022-08-26T00:07:51.931Z,83.75
2022-08-26T00:10:22.787Z,84.00
2022-08-26T00:12:54.565Z,84.08
2022-08-26T00:15:25.495Z,84.23
2022-08-26T00:17:54.580Z,84.24
2022-08-26T00:20:28.943Z,84.25
2022-08-26T00:22:57.734Z,84.41
2022-08-26T00:25:30.248Z,84.28
2022-08-26T00:27:58.937Z,84.42
2022-08-26T00:30:30.525Z,84.18
2022-08-26T00:33:00.251Z,84.26
2022-08-26T00:35:29.337Z,84.22
2022-08-26T00:38:04.034Z,84.27
2022-08-26T00:40:37.737Z,84.30
2022-08-26T00:43:09.279Z,84.46
2022-08-26T00:45:45.098Z,84.31
2022-08-26T00:48:17.565Z,84.54
2022-08-26T00:50:54.420Z,84.50
2022-08-26T00:53:26.046Z,84.52
2022-08-26T00:56:03.208Z,84.79
2022-08-26T00:58:35.335Z,84.58
2022-08-26T01:01:04.383Z,84.83
2022-08-26T01:03:35.640Z,84.69
2022-08-26T01:06:12.479Z,84.75
2022-08-26T01:08:42.398Z,84.74
2022-08-26T01:11:13.068Z,84.70
2022-08-26T01:13:42.457Z,84.45
2022-08-26T01:16:14.547Z,84.48
2022-08-26T01:18:44.741Z,84.66
2022-08-26T01:21:22.583Z,84.57
2022-08-26T01:23:57.524Z,84.73
2022-08-26T01:26:31.202Z,84.66
2022-08-26T01:29:05.651Z,84.85
2022-08-26T01:31:42.051Z,84.56
2022-08-26T01:34:18.551Z,84.48
2022-08-26T01:36:51.593Z,84.70
2022-08-26T01:39:22.388Z,84.52
2022-08-26T01:41:55.318Z,84.52
2022-08-26T01:44:28.408Z,84.74
2022-08-26T01:47:00.659Z,84.67
2022-08-26T01:49:31.964Z,84.77
2022-08-26T01:52:05.559Z,84.86
2022-08-26T01:54:37.341Z,84.65
2022-08-26T01:57:08.120Z,84.74
2022-08-26T01:59:37.288Z,84.79
2022-08-26T02:02:06.198Z,84.67
2022-08-26T02:04:39.218Z,84.77
2022-08-26T02:07:11.160Z,85.00
2022-08-26T02:09:42.620Z,84.86
2022-08-26T02:12:16.523Z,84.86
2022-08-26T02:14:52.437Z,84.89
2022-08-26T02:17:24.822Z,84.79
2022-08-26T02:19:53.943Z,84.97
2022-08-26T02:22:24.935Z,85.19
2022-08-26T02:24:58.249Z,85.10
2022-08-26T02:27:32.162Z,85.03
2022-08-26T02:30:08.548Z,85.14
2022-08-26T02:32:37.363Z,85.13
2022-08-26T02:35:10.057Z,85.01
2022-08-26T02:37:39.067Z,85.16
2022-08-26T02:40:15.750Z,85.01
2022-08-26T02:42:44.449Z,84.91
2022-08-26T02:45:13.327Z,85.15
2022-08-26T02:47:46.661Z,85.06
2022-08-26T02:50:15.477Z,85.11
2022-08-26T02:52:45.531Z,85.11
2022-08-26T02:55:16.228Z,85.27
2022-08-26T02:57:44.981Z,85.08
2022-08-26T03:00:15.578Z,85.17
2022-08-26T03:02:44.485Z,85.17
2022-08-26T03:05:14.096Z,85.19
2022-08-26T03:07:45.165Z,85.18
2022-08-26T03:10:16.724Z,85.12
2022-08-26T03:12:48.097Z,85.20
2022-08-26T03:15:19.021Z,85.33
2022-08-26T03:17:50.328Z,85.23
2022-08-26T03:20:19.987Z,85.36
2022-08-26T03:22:51.646Z,85.34
2022-08-26T03:25:23.300Z,85.45
2022-08-26T03:27:52.839Z,85.49
2022-08-26T03:30:34.670Z,85.45
2022-08-26T03:33:03.862Z,85.44
2022-08-26T03:35:33.577Z,85.24
2022-08-26T03:38:03.478Z,85.36
2022-08-26T03:40:34.091Z,85.28
2022-08-26T03:43:03.425Z,85.28
2022-08-26T03:45:32.319Z,85.27
2022-08-26T03:48:02.848Z,85.25
2022-08-26T03:50:34.242Z,85.40
2022-08-26T03:53:04.206Z,85.23
2022-08-26T03:55:37.648Z,85.25
2022-08-26T03:58:08.060Z,85.25
2022-08-26T04:00:37.060Z,85.13
2022-08-26T04:03:06.022Z,85.17
2022-08-26T04:05:39.651Z,85.14
2022-08-26T04:08:08.656Z,85.35
2022-08-26T04:10:40.743Z,85.31
2022-08-26T04:13:09.609Z,85.34
2022-08-26T04:15:39.716Z,85.34
2022-08-26T04:18:08.557Z,85.45
2022-08-26T04:20:37.356Z,85.47
2022-08-26T04:23:06.270Z,85.36
2022-08-26T04:25:35.118Z,85.42
2022-08-26T04:28:05.859Z,85.52
2022-08-26T04:30:38.855Z,85.43
2022-08-26T04:33:13.230Z,85.18
2022-08-26T04:35:44.221Z,85.22
2022-08-26T04:38:13.140Z,85.32
2022-08-26T04:40:46.898Z,85.40
2022-08-26T04:43:17.379Z,85.37
2022-08-26T04:45:46.489Z,85.35
2022-08-26T04:48:16.850Z,85.37
2022-08-26T04:50:49.448Z,85.27
2022-08-26T04:53:19.277Z,85.40
2022-08-26T04:55:48.402Z,85.45
2022-08-26T04:58:21.480Z,85.12
2022-08-26T05:00:52.559Z,84.82
2022-08-26T05:03:23.936Z,84.71
2022-08-26T05:05:52.916Z,84.84
2022-08-26T05:08:23.640Z,84.72
2022-08-26T05:10:56.486Z,84.69
2022-08-26T05:13:28.902Z,84.39
2022-08-26T05:16:01.149Z,84.40
2022-08-26T05:18:30.010Z,84.10
2022-08-26T05:20:58.809Z,84.08
2022-08-26T05:23:27.441Z,84.04
2022-08-26T05:25:59.256Z,83.72
2022-08-26T05:28:31.257Z,83.61
2022-08-26T05:31:00.999Z,83.19
2022-08-26T05:33:29.772Z,82.89
2022-08-26T05:35:58.757Z,82.66
2022-08-26T05:38:30.408Z,82.44
2022-08-26T05:40:59.559Z,81.99
2022-08-26T05:43:30.557Z,81.72
2022-08-26T05:46:08.401Z,81.15
2022-08-26T05:48:37.041Z,80.67
2022-08-26T05:51:08.898Z,80.41
2022-08-26T05:53:40.429Z,80.04
2022-08-26T05:56:13.567Z,79.48
2022-08-26T05:58:44.165Z,79.44
2022-08-26T06:01:19.873Z,79.16
2022-08-26T06:03:53.076Z,78.80
2022-08-26T06:06:27.460Z,78.22
2022-08-26T06:08:59.508Z,77.77
2022-08-26T06:11:32.663Z,77.62
2022-08-26T06:14:04.401Z,77.40
2022-08-26T06:16:35.339Z,76.54
2022-08-26T06:19:11.163Z,76.08
2022-08-26T06:21:42.008Z,75.83
2022-08-26T06:24:27.305Z,75.52
2022-08-26T06:26:58.619Z,75.65
2022-08-26T06:29:29.667Z,75.32
2022-08-26T06:31:59.101Z,75.01
2022-08-26T06:34:30.807Z,74.60
2022-08-26T06:37:03.655Z,74.43
2022-08-26T06:39:33.368Z,74.09
2022-08-26T06:42:03.023Z,73.83
2022-08-26T06:44:37.157Z,73.38
2022-08-26T06:47:10.018Z,73.09
2022-08-26T06:49:38.599Z,72.83
2022-08-26T06:52:08.652Z,73.05
2022-08-26T06:54:38.892Z,72.61
2022-08-26T06:57:07.838Z,72.16
2022-08-26T06:59:37.711Z,72.20
2022-08-26T07:02:06.933Z,71.76
2022-08-26T07:04:37.086Z,71.39
2022-08-26T07:07:05.587Z,71.46
2022-08-26T07:09:38.237Z,70.92
2022-08-26T07:12:07.383Z,70.49
2022-08-26T07:14:37.846Z,69.44
2022-08-26T07:17:12.186Z,69.37
2022-08-26T07:19:42.632Z,69.23
2022-08-26T07:22:11.199Z,69.37
2022-08-26T07:24:42.409Z,68.96
2022-08-26T07:27:13.709Z,68.43
2022-08-26T07:29:45.022Z,68.29
2022-08-26T07:32:15.588Z,67.82
2022-08-26T07:34:45.895Z,67.56
2022-08-26T07:37:14.491Z,67.25
2022-08-26T07:39:44.546Z,66.58
2022-08-26T07:42:15.373Z,66.77
2022-08-26T07:44:45.592Z,66.62
2022-08-26T07:47:24.983Z,65.77
2022-08-26T07:49:56.930Z,65.41
2022-08-26T07:52:27.352Z,64.60
2022-08-26T07:54:58.409Z,64.59
2022-08-26T07:57:27.621Z,65.05
2022-08-26T07:59:58.332Z,64.35
2022-08-26T08:02:28.614Z,64.05
2022-08-26T08:04:58.634Z,63.85
2022-08-26T08:07:38.600Z,64.11
2022-08-26T08:10:17.943Z,63.92
2022-08-26T08:12:51.042Z,63.71
2022-08-26T08:15:25.521Z,63.29
2022-08-26T08:17:55.630Z,63.45
2022-08-26T08:20:28.571Z,62.11
2022-08-26T08:22:58.163Z,62.43
2022-08-26T08:25:26.797Z,62.08
2022-08-26T08:27:55.356Z,61.66
2022-08-26T08:30:28.254Z,62.16
2022-08-26T08:32:57.375Z,61.61
2022-08-26T08:35:26.985Z,61.44
2022-08-26T08:37:56.976Z,61.25
2022-08-26T08:40:27.900Z,60.94
2022-08-26T08:43:06.489Z,60.33
2022-08-26T08:45:40.339Z,59.84
2022-08-26T08:48:17.434Z,59.18
2022-08-26T08:50:50.742Z,58.49
2022-08-26T08:53:23.556Z,57.66
2022-08-26T08:56:06.283Z,57.38
2022-08-26T08:58:47.974Z,57.65
2022-08-26T09:01:29.468Z,56.89
2022-08-26T09:04:24.825Z,57.48
2022-08-26T09:09:34.235Z,55.51
2022-08-26T09:12:03.844Z,53.54
2022-08-26T09:14:33.174Z,53.39
2022-08-26T09:17:10.473Z,53.22
2022-08-26T09:19:44.994Z,53.32
2022-08-26T09:22:30.536Z,53.46
2022-08-26T09:24:59.502Z,53.47
2022-08-26T09:27:44.314Z,53.74
2022-08-26T09:30:16.079Z,54.25
2022-08-26T09:33:00.240Z,53.82
2022-08-26T09:35:32.367Z,52.80
2022-08-26T09:38:01.098Z,52.70
2022-08-26T09:40:34.968Z,53.02
2022-08-26T09:43:11.543Z,51.63
2022-08-26T09:45:50.836Z,51.75
2022-08-26T09:48:35.515Z,51.59
2022-08-26T09:51:08.695Z,51.45
2022-08-26T09:53:51.388Z,50.81
2022-08-26T09:56:32.297Z,49.75
2022-08-26T09:59:01.912Z,49.69
2022-08-26T10:01:34.007Z,49.81
2022-08-26T10:04:11.460Z,49.91
2022-08-26T10:06:43.558Z,49.35
2022-08-26T10:09:18.720Z,48.44
2022-08-26T10:11:52.622Z,49.20
2022-08-26T10:14:27.847Z,49.86
2022-08-26T10:17:03.528Z,49.06
2022-08-26T10:19:55.564Z,48.85
2022-08-26T10:22:36.089Z,47.86
2022-08-26T10:25:08.671Z,47.68
2022-08-26T10:27:53.279Z,48.26
2022-08-26T10:30:25.391Z,47.77
2022-08-26T10:32:59.451Z,47.71
2022-08-26T10:35:30.451Z,47.85
2022-08-26T10:38:04.263Z,49.33
2022-08-26T10:40:46.422Z,49.06
2022-08-26T10:43:23.781Z,48.77
2022-08-26T10:45:58.456Z,48.19
2022-08-26T10:48:36.041Z,46.95
2022-08-26T10:51:07.162Z,46.03
2022-08-26T10:53:56.282Z,46.20
2022-08-26T10:56:40.299Z,45.65
2022-08-26T10:59:19.162Z,45.88
2022-08-26T11:01:54.811Z,46.44
2022-08-26T11:04:45.777Z,46.10
2022-08-26T11:07:38.401Z,46.26
2022-08-26T11:10:14.149Z,47.16
2022-08-26T11:12:59.595Z,45.70
2022-08-26T11:15:50.125Z,45.16
2022-08-26T11:18:41.592Z,45.11
2022-08-26T11:21:39.766Z,45.03
2022-08-26T11:24:08.374Z,45.46
2022-08-26T11:26:55.925Z,46.04
2022-08-26T11:29:51.073Z,45.40
2022-08-26T11:32:46.721Z,44.64
2022-08-26T11:35:39.436Z,44.34
2022-08-26T11:38:18.682Z,44.04
2022-08-26T11:40:58.421Z,43.76
2022-08-26T11:43:30.502Z,43.59
2022-08-26T11:46:04.749Z,43.93
2022-08-26T11:48:36.824Z,43.62
2022-08-26T11:51:09.359Z,43.49
2022-08-26T11:53:40.253Z,44.54
2022-08-26T11:56:12.133Z,44.37
2022-08-26T11:58:46.471Z,45.29
2022-08-26T12:01:27.580Z,44.53
2022-08-26T12:04:01.181Z,43.25
2022-08-26T12:06:36.389Z,42.82
2022-08-26T12:09:15.305Z,42.16
2022-08-26T12:11:44.102Z,41.34
2022-08-26T12:14:20.162Z,41.67
2022-08-26T12:16:49.454Z,41.95
2022-08-26T12:19:27.426Z,42.30
2022-08-26T12:22:05.515Z,42.56
2022-08-26T12:24:34.418Z,44.01
2022-08-26T12:27:22.615Z,42.78
2022-08-26T12:30:08.300Z,42.18
2022-08-26T12:32:58.202Z,40.60
2022-08-26T12:35:29.465Z,40.12
2022-08-26T12:37:59.142Z,39.09
2022-08-26T12:40:37.355Z,38.37
2022-08-26T12:43:08.241Z,38.98
2022-08-26T12:45:41.863Z,40.08
2022-08-26T12:48:13.841Z,40.73
2022-08-26T12:50:48.825Z,43.91
2022-08-26T12:53:23.432Z,44.68
2022-08-26T12:55:54.690Z,44.97
2022-08-26T12:58:28.022Z,45.00
2022-08-26T13:01:00.282Z,45.42
2022-08-26T13:03:33.154Z,46.00
2022-08-26T13:06:15.936Z,46.68
2022-08-26T13:08:47.031Z,45.99
2022-08-26T13:11:20.832Z,46.40
2022-08-26T13:13:52.186Z,47.39
2022-08-26T13:16:24.305Z,46.42
2022-08-26T13:18:55.234Z,46.31
2022-08-26T13:21:27.193Z,46.71
2022-08-26T13:23:58.013Z,46.93
2022-08-26T13:26:27.626Z,47.43
2022-08-26T13:29:01.737Z,46.93
2022-08-26T13:31:35.905Z,47.03
2022-08-26T13:34:06.508Z,47.03
2022-08-26T13:36:35.235Z,46.68
2022-08-26T13:39:04.412Z,46.23
2022-08-26T13:41:33.304Z,46.89
2022-08-26T13:44:02.056Z,46.29
2022-08-26T13:46:32.578Z,45.80
2022-08-26T13:49:01.376Z,46.16
2022-08-26T13:51:31.331Z,45.73
2022-08-26T13:54:00.386Z,45.93
2022-08-26T13:56:31.294Z,47.19
2022-08-26T13:59:01.468Z,46.58
2022-08-26T14:01:33.984Z,46.93
2022-08-26T14:04:03.483Z,46.34
2022-08-26T14:06:32.551Z,45.68
2022-08-26T14:09:01.066Z,45.91
2022-08-26T14:11:49.053Z,45.87
2022-08-26T14:14:19.225Z,48.13
2022-08-26T14:16:51.293Z,50.77
2022-08-26T14:19:30.733Z,51.42
2022-08-26T14:22:02.019Z,52.64
2022-08-26T14:24:31.303Z,53.53
2022-08-26T14:26:59.754Z,52.89
2022-08-26T14:29:28.653Z,52.53
2022-08-26T14:32:00.434Z,52.92
2022-08-26T14:34:29.636Z,53.58
2022-08-26T14:36:58.292Z,52.81
2022-08-26T14:39:37.633Z,51.65
2022-08-26T14:42:06.852Z,51.53
2022-08-26T14:44:35.845Z,51.40
2022-08-26T14:47:07.513Z,51.71
2022-08-26T14:49:36.442Z,51.97
2022-08-26T14:52:05.747Z,52.32
2022-08-26T14:54:33.878Z,52.85
2022-08-26T14:57:06.201Z,53.07
2022-08-26T14:59:38.965Z,53.23
2022-08-26T15:02:11.915Z,53.18
2022-08-26T15:04:43.165Z,53.48
2022-08-26T15:07:12.631Z,53.72
2022-08-26T15:09:41.813Z,54.07
2022-08-26T15:12:10.593Z,54.35
2022-08-26T15:14:39.765Z,54.87
2022-08-26T15:17:09.885Z,54.81
2022-08-26T15:19:38.976Z,54.89
2022-08-26T15:22:07.757Z,55.00
2022-08-26T15:24:36.814Z,54.62
2022-08-26T15:27:06.746Z,54.72
2022-08-26T15:29:36.404Z,54.24
2022-08-26T15:32:06.320Z,53.78
2022-08-26T15:34:36.656Z,53.63
2022-08-26T15:37:06.395Z,53.96
2022-08-26T15:39:35.947Z,55.07
2022-08-26T15:42:05.215Z,54.01
2022-08-26T15:44:34.373Z,53.71
2022-08-26T15:47:03.237Z,54.44
2022-08-26T15:49:32.292Z,54.08
2022-08-26T15:52:05.245Z,53.38
2022-08-26T15:54:34.698Z,52.80
2022-08-26T15:57:08.211Z,51.99
2022-08-26T15:59:39.948Z,52.00
2022-08-26T16:02:09.407Z,52.81
2022-08-26T16:04:38.800Z,52.40
2022-08-26T16:07:09.185Z,52.99
2022-08-26T16:09:38.104Z,53.83
2022-08-26T16:12:07.244Z,54.15
2022-08-26T16:14:36.524Z,55.97
2022-08-26T16:17:05.083Z,56.45
2022-08-26T16:19:33.768Z,57.73
2022-08-26T16:22:02.884Z,58.39
2022-08-26T16:24:32.935Z,58.49
2022-08-26T16:27:01.635Z,58.06
2022-08-26T16:29:32.209Z,58.50
2022-08-26T16:32:00.839Z,60.20
2022-08-26T16:34:29.331Z,61.16
2022-08-26T16:36:58.129Z,60.72
2022-08-26T16:39:26.977Z,61.00
2022-08-26T16:41:56.977Z,59.99
2022-08-26T16:44:26.174Z,59.90
2022-08-26T16:46:59.559Z,58.67
2022-08-26T16:49:28.300Z,58.05
2022-08-26T16:51:57.141Z,57.77
2022-08-26T16:54:25.792Z,57.88
2022-08-26T16:56:54.567Z,58.24
2022-08-26T16:59:24.589Z,58.39
2022-08-26T17:01:53.458Z,57.65
2022-08-26T17:04:22.620Z,56.96
2022-08-26T17:06:51.978Z,56.78
2022-08-26T17:09:20.868Z,56.84
2022-08-26T17:11:50.682Z,56.56
2022-08-26T17:14:19.720Z,56.85
2022-08-26T17:16:51.842Z,57.23
2022-08-26T17:19:22.129Z,57.08
2022-08-26T17:21:51.013Z,57.49
2022-08-26T17:24:19.727Z,57.25
2022-08-26T17:26:53.539Z,56.67
2022-08-26T17:29:27.681Z,56.61
2022-08-26T17:31:57.814Z,55.59
2022-08-26T17:34:26.441Z,55.21
2022-08-26T17:36:56.373Z,55.31
2022-08-26T17:39:25.043Z,54.95
2022-08-26T17:41:53.703Z,55.83
2022-08-26T17:44:22.433Z,55.97
2022-08-26T17:46:51.065Z,55.52
2022-08-26T17:49:21.235Z,55.93
2022-08-26T17:51:50.762Z,55.57
2022-08-26T17:54:19.736Z,56.44
2022-08-26T17:56:48.401Z,56.67
2022-08-26T17:59:17.442Z,56.86
2022-08-26T18:01:47.193Z,57.00
2022-08-26T18:04:16.129Z,57.19
2022-08-26T18:06:46.549Z,56.84
2022-08-26T18:09:15.193Z,57.30
2022-08-26T18:11:44.013Z,57.21
2022-08-26T18:14:12.737Z,57.83
2022-08-26T18:16:41.852Z,58.23
2022-08-26T18:19:10.508Z,59.02
2022-08-26T18:21:39.163Z,59.23
2022-08-26T18:24:13.830Z,58.59
2022-08-26T18:26:48.726Z,58.08
2022-08-26T18:29:19.968Z,58.15
2022-08-26T18:31:49.858Z,58.64
2022-08-26T18:34:19.678Z,59.49
2022-08-26T18:36:48.810Z,61.02
2022-08-26T18:39:23.581Z,61.61
2022-08-26T18:41:53.671Z,61.22
2022-08-26T18:44:23.526Z,60.77
2022-08-26T18:46:52.669Z,60.78
2022-08-26T18:49:23.431Z,61.00
2022-08-26T18:51:52.677Z,61.11
2022-08-26T18:54:22.801Z,61.23
2022-08-26T18:56:52.270Z,61.21
2022-08-26T18:59:27.948Z,61.21
2022-08-26T19:02:00.059Z,61.18
2022-08-26T19:04:28.844Z,61.62
2022-08-26T19:06:57.436Z,61.84
2022-08-26T19:09:28.089Z,61.54
2022-08-26T19:11:59.014Z,61.65
2022-08-26T19:14:27.761Z,61.76
2022-08-26T19:16:56.611Z,61.92
2022-08-26T19:19:25.321Z,62.01
2022-08-26T19:21:54.682Z,62.16
2022-08-26T19:24:25.987Z,62.38
2022-08-26T19:27:00.982Z,62.65
2022-08-26T19:29:32.082Z,62.79
2022-08-26T19:32:02.110Z,63.04
2022-08-26T19:34:30.911Z,62.88
2022-08-26T19:37:00.121Z,63.16
2022-08-26T19:39:28.800Z,63.24
2022-08-26T19:42:01.211Z,63.91
2022-08-26T19:44:49.590Z,64.22
2022-08-26T19:47:18.310Z,64.30
2022-08-26T19:49:47.520Z,64.49
2022-08-26T19:52:16.120Z,64.76
2022-08-26T19:54:45.211Z,64.87
2022-08-26T19:57:15.340Z,64.59
2022-08-26T19:59:44.919Z,64.49
2022-08-26T20:02:14.587Z,64.15
2022-08-26T20:04:43.810Z,63.75
2022-08-26T20:07:18.540Z,63.46
2022-08-26T20:09:49.830Z,63.56
2022-08-26T20:12:20.152Z,63.52
2022-08-26T20:14:49.316Z,63.50
2022-08-26T20:17:17.936Z,63.73
2022-08-26T20:19:56.650Z,63.90
2022-08-26T20:22:25.711Z,64.25
2022-08-26T20:24:54.337Z,64.30
2022-08-26T20:27:37.942Z,64.33
2022-08-26T20:30:09.878Z,64.46
2022-08-26T20:32:39.047Z,64.86
2022-08-26T20:35:09.636Z,64.99
2022-08-26T20:37:39.226Z,65.16
2022-08-26T20:40:09.002Z,65.17
2022-08-26T20:42:39.507Z,65.23
2022-08-26T20:45:09.598Z,65.44
2022-08-26T20:47:38.681Z,65.60
2022-08-26T20:50:08.892Z,65.63
2022-08-26T20:52:37.566Z,66.02
2022-08-26T20:55:07.416Z,65.96
2022-08-26T20:57:36.159Z,66.11
2022-08-26T21:00:07.897Z,66.01
2022-08-26T21:02:37.291Z,65.97
2022-08-26T21:05:07.149Z,66.06
2022-08-26T21:07:36.320Z,66.13
2022-08-26T21:10:05.441Z,66.50
2022-08-26T21:12:34.217Z,66.61
2022-08-26T21:15:03.428Z,66.68
2022-08-26T21:17:34.002Z,66.77
2022-08-26T21:20:02.909Z,66.94
2022-08-26T21:22:31.597Z,67.28
2022-08-26T21:25:00.288Z,67.19
2022-08-26T21:27:29.297Z,67.23
2022-08-26T21:29:58.259Z,67.10
2022-08-26T21:32:26.829Z,66.99
2022-08-26T21:34:58.346Z,66.77
2022-08-26T21:37:29.395Z,66.94
2022-08-26T21:40:02.209Z,66.90
2022-08-26T21:42:33.905Z,66.93
2022-08-26T21:45:03.652Z,66.75
2022-08-26T21:47:33.200Z,66.76
2022-08-26T21:50:03.057Z,66.54
2022-08-26T21:52:32.292Z,66.69
2022-08-26T21:55:02.487Z,66.63
2022-08-26T21:57:31.937Z,66.67
2022-08-26T22:00:00.708Z,66.82
2022-08-26T22:02:35.235Z,66.74
2022-08-26T22:05:05.767Z,66.74
2022-08-26T22:07:34.825Z,66.66
2022-08-26T22:10:04.931Z,66.73
2022-08-26T22:12:33.651Z,66.69
2022-08-26T22:15:02.926Z,66.93
2022-08-26T22:17:32.020Z,67.13
2022-08-26T22:20:00.600Z,67.17
2022-08-26T22:22:31.471Z,67.24
2022-08-26T22:25:00.402Z,67.28
2022-08-26T22:27:29.099Z,67.02
2022-08-26T22:29:58.090Z,67.21
2022-08-26T22:32:26.669Z,67.19
2022-08-26T22:34:55.341Z,67.18
2022-08-26T22:37:24.040Z,67.47
2022-08-26T22:39:54.133Z,67.27
2022-08-26T22:42:22.981Z,67.42
2022-08-26T22:44:51.707Z,67.41
2022-08-26T22:47:20.659Z,67.68
2022-08-26T22:49:49.399Z,68.00
2022-08-26T22:52:18.220Z,68.25
2022-08-26T22:54:46.943Z,68.56
2022-08-26T22:57:16.973Z,68.76
2022-08-26T22:59:46.540Z,69.02
2022-08-26T23:02:14.968Z,68.82
2022-08-26T23:04:43.809Z,68.87
2022-08-26T23:07:13.562Z,69.16
2022-08-26T23:09:42.398Z,68.76
2022-08-26T23:12:11.050Z,68.83
2022-08-26T23:14:41.729Z,68.88
2022-08-26T23:17:12.440Z,68.73
2022-08-26T23:19:41.132Z,68.88
2022-08-26T23:22:09.948Z,69.16
2022-08-26T23:24:38.590Z,68.82
2022-08-26T23:27:07.500Z,68.97
2022-08-26T23:29:37.020Z,68.84
2022-08-26T23:32:07.648Z,68.83
2022-08-26T23:34:46.122Z,69.00
2022-08-26T23:37:17.028Z,68.95
2022-08-26T23:39:45.962Z,69.03
2022-08-26T23:42:14.689Z,69.02
2022-08-26T23:44:43.851Z,69.02
2022-08-26T23:47:25.451Z,68.98
2022-08-26T23:49:54.933Z,69.15
2022-08-26T23:52:33.545Z,68.98
2022-08-26T23:55:02.443Z,69.24
2022-08-26T23:57:31.352Z,69.22
